sensor_id;sensor_type;location;lat;lon;timestamp;P1;durP1;ratioP1;P2;durP2;ratioP2
54261;SDS011;40174;52.364;6.452;2023-02-13T00:00:00;23.45;;;8.60;;
54261;SDS011;40174;52.364;6.452;2023-02-13T00:02:29;26.13;;;8.73;;
54261;SDS011;40174;52.364;6.452;2023-02-13T00:04:56;28.05;;;8.57;;
54261;SDS011;40174;52.364;6.452;2023-02-13T00:07:23;19.27;;;7.85;;
54261;SDS011;40174;52.364;6.452;2023-02-13T00:09:49;22.63;;;8.07;;
54261;SDS011;40174;52.364;6.452;2023-02-13T00:12:16;24.45;;;8.45;;
54261;SDS011;40174;52.364;6.452;2023-02-13T00:14:42;25.30;;;9.45;;
54261;SDS011;40174;52.364;6.452;2023-02-13T00:17:10;25.70;;;9.13;;
54261;SDS011;40174;52.364;6.452;2023-02-13T00:19:37;28.38;;;8.90;;
54261;SDS011;40174;52.364;6.452;2023-02-13T00:22:04;26.00;;;10.30;;
54261;SDS011;40174;52.364;6.452;2023-02-13T00:24:30;22.45;;;8.63;;
54261;SDS011;40174;52.364;6.452;2023-02-13T00:26:57;25.13;;;9.55;;
54261;SDS011;40174;52.364;6.452;2023-02-13T00:29:23;22.42;;;7.78;;
54261;SDS011;40174;52.364;6.452;2023-02-13T00:31:50;22.75;;;8.30;;
54261;SDS011;40174;52.364;6.452;2023-02-13T00:34:18;24.13;;;8.57;;
54261;SDS011;40174;52.364;6.452;2023-02-13T00:36:45;24.50;;;8.43;;
54261;SDS011;40174;52.364;6.452;2023-02-13T00:39:11;22.95;;;8.00;;
54261;SDS011;40174;52.364;6.452;2023-02-13T00:41:38;26.10;;;8.90;;
54261;SDS011;40174;52.364;6.452;2023-02-13T00:44:05;19.75;;;7.80;;
54261;SDS011;40174;52.364;6.452;2023-02-13T00:46:31;28.85;;;10.43;;
54261;SDS011;40174;52.364;6.452;2023-02-13T00:48:58;27.67;;;9.07;;
54261;SDS011;40174;52.364;6.452;2023-02-13T00:51:26;23.48;;;8.43;;
54261;SDS011;40174;52.364;6.452;2023-02-13T00:53:53;24.85;;;7.72;;
54261;SDS011;40174;52.364;6.452;2023-02-13T00:56:19;30.10;;;9.15;;
54261;SDS011;40174;52.364;6.452;2023-02-13T00:58:46;28.33;;;9.20;;
54261;SDS011;40174;52.364;6.452;2023-02-13T01:01:13;25.08;;;8.18;;
54261;SDS011;40174;52.364;6.452;2023-02-13T01:03:40;28.48;;;10.48;;
54261;SDS011;40174;52.364;6.452;2023-02-13T01:06:07;25.42;;;8.90;;
54261;SDS011;40174;52.364;6.452;2023-02-13T01:08:37;25.92;;;9.48;;
54261;SDS011;40174;52.364;6.452;2023-02-13T01:11:04;27.90;;;9.43;;
54261;SDS011;40174;52.364;6.452;2023-02-13T01:13:31;27.00;;;9.40;;
54261;SDS011;40174;52.364;6.452;2023-02-13T01:15:58;22.45;;;9.48;;
54261;SDS011;40174;52.364;6.452;2023-02-13T01:18:24;24.95;;;8.63;;
54261;SDS011;40174;52.364;6.452;2023-02-13T01:20:57;27.02;;;8.90;;
54261;SDS011;40174;52.364;6.452;2023-02-13T01:23:24;31.38;;;10.20;;
54261;SDS011;40174;52.364;6.452;2023-02-13T01:25:55;25.33;;;9.35;;
54261;SDS011;40174;52.364;6.452;2023-02-13T01:28:23;29.30;;;10.20;;
54261;SDS011;40174;52.364;6.452;2023-02-13T01:30:53;26.88;;;9.20;;
54261;SDS011;40174;52.364;6.452;2023-02-13T01:33:21;22.80;;;8.75;;
54261;SDS011;40174;52.364;6.452;2023-02-13T01:35:47;26.98;;;9.05;;
54261;SDS011;40174;52.364;6.452;2023-02-13T01:38:14;24.55;;;8.00;;
54261;SDS011;40174;52.364;6.452;2023-02-13T01:40:44;25.30;;;8.80;;
54261;SDS011;40174;52.364;6.452;2023-02-13T01:43:13;20.85;;;8.38;;
54261;SDS011;40174;52.364;6.452;2023-02-13T01:45:40;25.52;;;9.68;;
54261;SDS011;40174;52.364;6.452;2023-02-13T01:48:10;28.55;;;8.88;;
54261;SDS011;40174;52.364;6.452;2023-02-13T01:50:41;22.45;;;8.52;;
54261;SDS011;40174;52.364;6.452;2023-02-13T01:53:12;35.60;;;9.15;;
54261;SDS011;40174;52.364;6.452;2023-02-13T01:55:44;30.33;;;9.25;;
54261;SDS011;40174;52.364;6.452;2023-02-13T01:58:17;27.13;;;9.45;;
54261;SDS011;40174;52.364;6.452;2023-02-13T02:00:46;23.48;;;8.77;;
54261;SDS011;40174;52.364;6.452;2023-02-13T02:03:15;21.10;;;7.90;;
54261;SDS011;40174;52.364;6.452;2023-02-13T02:05:46;24.17;;;8.80;;
54261;SDS011;40174;52.364;6.452;2023-02-13T02:08:16;26.30;;;8.30;;
54261;SDS011;40174;52.364;6.452;2023-02-13T02:10:50;27.30;;;9.45;;
54261;SDS011;40174;52.364;6.452;2023-02-13T02:13:19;27.77;;;8.50;;
54261;SDS011;40174;52.364;6.452;2023-02-13T02:15:47;25.73;;;8.07;;
54261;SDS011;40174;52.364;6.452;2023-02-13T02:18:14;24.25;;;8.25;;
54261;SDS011;40174;52.364;6.452;2023-02-13T02:21:05;25.92;;;8.25;;
54261;SDS011;40174;52.364;6.452;2023-02-13T02:24:06;27.88;;;9.18;;
54261;SDS011;40174;52.364;6.452;2023-02-13T02:30:07;19.20;;;6.82;;
54261;SDS011;40174;52.364;6.452;2023-02-13T02:32:56;24.53;;;8.57;;
54261;SDS011;40174;52.364;6.452;2023-02-13T02:35:33;27.10;;;9.95;;
54261;SDS011;40174;52.364;6.452;2023-02-13T02:38:12;29.88;;;8.45;;
54261;SDS011;40174;52.364;6.452;2023-02-13T02:40:56;28.65;;;7.97;;
54261;SDS011;40174;52.364;6.452;2023-02-13T02:43:39;26.58;;;9.13;;
54261;SDS011;40174;52.364;6.452;2023-02-13T02:46:20;25.63;;;8.18;;
54261;SDS011;40174;52.364;6.452;2023-02-13T02:48:56;22.90;;;8.55;;
54261;SDS011;40174;52.364;6.452;2023-02-13T02:51:50;28.20;;;9.52;;
54261;SDS011;40174;52.364;6.452;2023-02-13T02:54:23;26.73;;;8.80;;
54261;SDS011;40174;52.364;6.452;2023-02-13T02:57:14;26.00;;;7.78;;
54261;SDS011;40174;52.364;6.452;2023-02-13T02:59:52;25.67;;;9.23;;
54261;SDS011;40174;52.364;6.452;2023-02-13T03:02:38;23.15;;;8.02;;
54261;SDS011;40174;52.364;6.452;2023-02-13T03:05:38;25.08;;;8.23;;
54261;SDS011;40174;52.364;6.452;2023-02-13T03:08:27;25.60;;;9.77;;
54261;SDS011;40174;52.364;6.452;2023-02-13T03:11:08;27.83;;;8.75;;
54261;SDS011;40174;52.364;6.452;2023-02-13T03:13:52;30.65;;;9.45;;
54261;SDS011;40174;52.364;6.452;2023-02-13T03:16:22;28.75;;;9.05;;
54261;SDS011;40174;52.364;6.452;2023-02-13T03:19:11;26.42;;;8.63;;
54261;SDS011;40174;52.364;6.452;2023-02-13T03:22:02;30.15;;;9.10;;
54261;SDS011;40174;52.364;6.452;2023-02-13T03:24:49;27.38;;;8.93;;
54261;SDS011;40174;52.364;6.452;2023-02-13T03:30:17;29.23;;;8.77;;
54261;SDS011;40174;52.364;6.452;2023-02-13T03:32:56;23.00;;;8.35;;
54261;SDS011;40174;52.364;6.452;2023-02-13T03:35:34;26.35;;;7.55;;
54261;SDS011;40174;52.364;6.452;2023-02-13T03:38:26;26.15;;;8.82;;
54261;SDS011;40174;52.364;6.452;2023-02-13T03:40:57;22.70;;;8.05;;
54261;SDS011;40174;52.364;6.452;2023-02-13T03:43:46;31.42;;;10.07;;
54261;SDS011;40174;52.364;6.452;2023-02-13T03:46:20;25.58;;;9.27;;
54261;SDS011;40174;52.364;6.452;2023-02-13T03:48:50;26.77;;;8.98;;
54261;SDS011;40174;52.364;6.452;2023-02-13T03:51:37;29.50;;;9.30;;
54261;SDS011;40174;52.364;6.452;2023-02-13T03:54:13;27.30;;;9.45;;
54261;SDS011;40174;52.364;6.452;2023-02-13T03:56:44;31.23;;;9.73;;
54261;SDS011;40174;52.364;6.452;2023-02-13T03:59:33;22.88;;;8.63;;
54261;SDS011;40174;52.364;6.452;2023-02-13T04:02:03;26.92;;;7.47;;
54261;SDS011;40174;52.364;6.452;2023-02-13T04:04:38;23.95;;;9.70;;
54261;SDS011;40174;52.364;6.452;2023-02-13T04:07:12;24.60;;;8.80;;
54261;SDS011;40174;52.364;6.452;2023-02-13T04:09:55;29.35;;;8.48;;
54261;SDS011;40174;52.364;6.452;2023-02-13T04:12:24;25.77;;;8.52;;
54261;SDS011;40174;52.364;6.452;2023-02-13T04:14:57;26.77;;;8.75;;
54261;SDS011;40174;52.364;6.452;2023-02-13T04:17:30;28.73;;;9.60;;
54261;SDS011;40174;52.364;6.452;2023-02-13T04:19:59;28.90;;;9.05;;
54261;SDS011;40174;52.364;6.452;2023-02-13T04:22:26;26.77;;;7.88;;
54261;SDS011;40174;52.364;6.452;2023-02-13T04:24:52;28.80;;;8.77;;
54261;SDS011;40174;52.364;6.452;2023-02-13T04:27:20;27.65;;;8.32;;
54261;SDS011;40174;52.364;6.452;2023-02-13T04:29:50;24.50;;;8.18;;
54261;SDS011;40174;52.364;6.452;2023-02-13T04:32:17;35.10;;;9.85;;
54261;SDS011;40174;52.364;6.452;2023-02-13T04:34:43;26.10;;;8.65;;
54261;SDS011;40174;52.364;6.452;2023-02-13T04:37:10;30.58;;;9.63;;
54261;SDS011;40174;52.364;6.452;2023-02-13T04:39:36;26.85;;;9.63;;
54261;SDS011;40174;52.364;6.452;2023-02-13T04:42:03;28.50;;;9.43;;
54261;SDS011;40174;52.364;6.452;2023-02-13T04:44:31;26.33;;;8.82;;
54261;SDS011;40174;52.364;6.452;2023-02-13T04:46:58;30.33;;;9.25;;
54261;SDS011;40174;52.364;6.452;2023-02-13T04:49:24;30.80;;;9.38;;
54261;SDS011;40174;52.364;6.452;2023-02-13T04:51:51;28.83;;;9.35;;
54261;SDS011;40174;52.364;6.452;2023-02-13T04:54:17;29.13;;;8.32;;
54261;SDS011;40174;52.364;6.452;2023-02-13T04:56:44;25.95;;;9.27;;
54261;SDS011;40174;52.364;6.452;2023-02-13T04:59:11;24.30;;;8.02;;
54261;SDS011;40174;52.364;6.452;2023-02-13T05:01:39;28.92;;;9.05;;
54261;SDS011;40174;52.364;6.452;2023-02-13T05:04:05;29.05;;;9.18;;
54261;SDS011;40174;52.364;6.452;2023-02-13T05:06:32;28.10;;;8.85;;
54261;SDS011;40174;52.364;6.452;2023-02-13T05:08:58;34.75;;;10.32;;
54261;SDS011;40174;52.364;6.452;2023-02-13T05:11:25;31.65;;;9.38;;
54261;SDS011;40174;52.364;6.452;2023-02-13T05:13:52;27.08;;;8.65;;
54261;SDS011;40174;52.364;6.452;2023-02-13T05:16:18;26.63;;;8.48;;
54261;SDS011;40174;52.364;6.452;2023-02-13T05:18:46;28.15;;;8.98;;
54261;SDS011;40174;52.364;6.452;2023-02-13T05:21:13;23.55;;;8.85;;
54261;SDS011;40174;52.364;6.452;2023-02-13T05:24:05;31.63;;;9.30;;
54261;SDS011;40174;52.364;6.452;2023-02-13T05:26:32;26.63;;;9.20;;
54261;SDS011;40174;52.364;6.452;2023-02-13T05:28:58;29.08;;;9.73;;
54261;SDS011;40174;52.364;6.452;2023-02-13T05:31:42;29.45;;;8.93;;
54261;SDS011;40174;52.364;6.452;2023-02-13T05:34:10;29.35;;;8.90;;
54261;SDS011;40174;52.364;6.452;2023-02-13T05:36:37;26.98;;;8.95;;
54261;SDS011;40174;52.364;6.452;2023-02-13T05:39:04;26.13;;;8.25;;
54261;SDS011;40174;52.364;6.452;2023-02-13T05:41:30;23.98;;;7.70;;
54261;SDS011;40174;52.364;6.452;2023-02-13T05:43:57;32.90;;;8.98;;
54261;SDS011;40174;52.364;6.452;2023-02-13T05:46:23;25.02;;;9.30;;
54261;SDS011;40174;52.364;6.452;2023-02-13T05:48:50;28.25;;;9.05;;
54261;SDS011;40174;52.364;6.452;2023-02-13T05:51:18;31.25;;;8.63;;
54261;SDS011;40174;52.364;6.452;2023-02-13T05:53:45;29.55;;;9.30;;
54261;SDS011;40174;52.364;6.452;2023-02-13T05:56:12;25.00;;;8.75;;
54261;SDS011;40174;52.364;6.452;2023-02-13T05:58:38;27.88;;;9.20;;
54261;SDS011;40174;52.364;6.452;2023-02-13T06:01:05;32.25;;;8.35;;
54261;SDS011;40174;52.364;6.452;2023-02-13T06:03:32;27.02;;;9.27;;
54261;SDS011;40174;52.364;6.452;2023-02-13T06:05:59;26.85;;;9.55;;
54261;SDS011;40174;52.364;6.452;2023-02-13T06:08:27;27.83;;;9.85;;
54261;SDS011;40174;52.364;6.452;2023-02-13T06:10:54;26.48;;;8.30;;
54261;SDS011;40174;52.364;6.452;2023-02-13T06:13:20;28.30;;;9.30;;
54261;SDS011;40174;52.364;6.452;2023-02-13T06:15:47;27.42;;;8.82;;
54261;SDS011;40174;52.364;6.452;2023-02-13T06:18:14;24.85;;;8.30;;
54261;SDS011;40174;52.364;6.452;2023-02-13T06:20:41;24.92;;;8.80;;
54261;SDS011;40174;52.364;6.452;2023-02-13T06:23:08;27.08;;;8.57;;
54261;SDS011;40174;52.364;6.452;2023-02-13T06:25:36;27.58;;;9.40;;
54261;SDS011;40174;52.364;6.452;2023-02-13T06:28:03;29.85;;;9.45;;
54261;SDS011;40174;52.364;6.452;2023-02-13T06:30:30;27.65;;;10.30;;
54261;SDS011;40174;52.364;6.452;2023-02-13T06:32:57;25.20;;;9.15;;
54261;SDS011;40174;52.364;6.452;2023-02-13T06:35:23;27.17;;;8.85;;
54261;SDS011;40174;52.364;6.452;2023-02-13T06:37:50;25.88;;;8.73;;
54261;SDS011;40174;52.364;6.452;2023-02-13T06:40:17;26.67;;;9.27;;
54261;SDS011;40174;52.364;6.452;2023-02-13T06:42:45;29.17;;;9.35;;
54261;SDS011;40174;52.364;6.452;2023-02-13T06:45:12;27.52;;;9.98;;
54261;SDS011;40174;52.364;6.452;2023-02-13T06:47:39;32.83;;;9.88;;
54261;SDS011;40174;52.364;6.452;2023-02-13T06:50:07;29.17;;;8.57;;
54261;SDS011;40174;52.364;6.452;2023-02-13T06:52:34;30.42;;;9.88;;
54261;SDS011;40174;52.364;6.452;2023-02-13T06:55:01;30.98;;;9.30;;
54261;SDS011;40174;52.364;6.452;2023-02-13T06:57:28;29.92;;;9.38;;
54261;SDS011;40174;52.364;6.452;2023-02-13T06:59:58;25.88;;;8.82;;
54261;SDS011;40174;52.364;6.452;2023-02-13T07:02:27;32.10;;;10.90;;
54261;SDS011;40174;52.364;6.452;2023-02-13T07:04:54;26.48;;;9.05;;
54261;SDS011;40174;52.364;6.452;2023-02-13T07:07:20;35.83;;;9.38;;
54261;SDS011;40174;52.364;6.452;2023-02-13T07:09:47;31.73;;;10.15;;
54261;SDS011;40174;52.364;6.452;2023-02-13T07:12:14;30.15;;;9.63;;
54261;SDS011;40174;52.364;6.452;2023-02-13T07:14:40;28.70;;;9.15;;
54261;SDS011;40174;52.364;6.452;2023-02-13T07:17:08;29.70;;;10.00;;
54261;SDS011;40174;52.364;6.452;2023-02-13T07:19:35;30.45;;;9.55;;
54261;SDS011;40174;52.364;6.452;2023-02-13T07:22:01;30.27;;;9.45;;
54261;SDS011;40174;52.364;6.452;2023-02-13T07:24:28;28.13;;;9.77;;
54261;SDS011;40174;52.364;6.452;2023-02-13T07:26:55;31.85;;;11.20;;
54261;SDS011;40174;52.364;6.452;2023-02-13T07:29:21;27.52;;;8.13;;
54261;SDS011;40174;52.364;6.452;2023-02-13T07:31:48;34.22;;;10.32;;
54261;SDS011;40174;52.364;6.452;2023-02-13T07:34:16;30.67;;;10.35;;
54261;SDS011;40174;52.364;6.452;2023-02-13T07:36:43;31.60;;;9.48;;
54261;SDS011;40174;52.364;6.452;2023-02-13T07:39:09;29.50;;;9.85;;
54261;SDS011;40174;52.364;6.452;2023-02-13T07:41:36;28.00;;;9.93;;
54261;SDS011;40174;52.364;6.452;2023-02-13T07:44:05;27.13;;;9.82;;
54261;SDS011;40174;52.364;6.452;2023-02-13T07:46:32;32.05;;;10.18;;
54261;SDS011;40174;52.364;6.452;2023-02-13T07:48:58;33.55;;;10.52;;
54261;SDS011;40174;52.364;6.452;2023-02-13T07:51:26;37.50;;;11.63;;
54261;SDS011;40174;52.364;6.452;2023-02-13T07:53:53;31.58;;;11.30;;
54261;SDS011;40174;52.364;6.452;2023-02-13T07:56:20;38.90;;;12.10;;
54261;SDS011;40174;52.364;6.452;2023-02-13T07:58:47;31.10;;;11.57;;
54261;SDS011;40174;52.364;6.452;2023-02-13T08:01:14;33.35;;;10.75;;
54261;SDS011;40174;52.364;6.452;2023-02-13T08:03:41;33.13;;;10.35;;
54261;SDS011;40174;52.364;6.452;2023-02-13T08:06:08;27.27;;;9.85;;
54261;SDS011;40174;52.364;6.452;2023-02-13T08:08:36;32.90;;;9.98;;
54261;SDS011;40174;52.364;6.452;2023-02-13T08:11:04;34.92;;;10.15;;
54261;SDS011;40174;52.364;6.452;2023-02-13T08:13:49;31.45;;;10.93;;
54261;SDS011;40174;52.364;6.452;2023-02-13T08:16:16;30.92;;;11.20;;
54261;SDS011;40174;52.364;6.452;2023-02-13T08:18:43;32.60;;;11.00;;
54261;SDS011;40174;52.364;6.452;2023-02-13T08:21:09;38.40;;;12.45;;
54261;SDS011;40174;52.364;6.452;2023-02-13T08:23:37;33.15;;;10.52;;
54261;SDS011;40174;52.364;6.452;2023-02-13T08:26:04;39.38;;;12.00;;
54261;SDS011;40174;52.364;6.452;2023-02-13T08:28:31;32.65;;;10.32;;
54261;SDS011;40174;52.364;6.452;2023-02-13T08:30:57;36.90;;;11.35;;
54261;SDS011;40174;52.364;6.452;2023-02-13T08:33:24;35.53;;;10.63;;
54261;SDS011;40174;52.364;6.452;2023-02-13T08:35:51;36.42;;;11.82;;
54261;SDS011;40174;52.364;6.452;2023-02-13T08:38:17;37.40;;;11.55;;
54261;SDS011;40174;52.364;6.452;2023-02-13T08:40:46;34.30;;;10.80;;
54261;SDS011;40174;52.364;6.452;2023-02-13T08:43:13;28.67;;;9.43;;
54261;SDS011;40174;52.364;6.452;2023-02-13T08:45:39;36.33;;;10.77;;
54261;SDS011;40174;52.364;6.452;2023-02-13T08:48:06;41.55;;;10.60;;
54261;SDS011;40174;52.364;6.452;2023-02-13T08:50:33;32.38;;;10.73;;
54261;SDS011;40174;52.364;6.452;2023-02-13T08:52:59;31.83;;;11.32;;
54261;SDS011;40174;52.364;6.452;2023-02-13T08:55:26;29.33;;;11.30;;
54261;SDS011;40174;52.364;6.452;2023-02-13T08:57:55;31.02;;;10.82;;
54261;SDS011;40174;52.364;6.452;2023-02-13T09:00:24;35.67;;;11.07;;
54261;SDS011;40174;52.364;6.452;2023-02-13T09:02:51;26.15;;;10.15;;
54261;SDS011;40174;52.364;6.452;2023-02-13T09:05:18;35.80;;;12.35;;
54261;SDS011;40174;52.364;6.452;2023-02-13T09:07:45;29.55;;;11.07;;
54261;SDS011;40174;52.364;6.452;2023-02-13T09:10:11;32.65;;;11.77;;
54261;SDS011;40174;52.364;6.452;2023-02-13T09:12:38;32.15;;;11.45;;
54261;SDS011;40174;52.364;6.452;2023-02-13T09:15:06;29.88;;;10.82;;
54261;SDS011;40174;52.364;6.452;2023-02-13T09:17:33;31.08;;;11.43;;
54261;SDS011;40174;52.364;6.452;2023-02-13T09:20:00;30.75;;;11.52;;
54261;SDS011;40174;52.364;6.452;2023-02-13T09:22:27;35.83;;;11.43;;
54261;SDS011;40174;52.364;6.452;2023-02-13T09:24:54;26.90;;;10.40;;
54261;SDS011;40174;52.364;6.452;2023-02-13T09:27:20;32.53;;;13.50;;
54261;SDS011;40174;52.364;6.452;2023-02-13T09:29:47;33.35;;;11.05;;
54261;SDS011;40174;52.364;6.452;2023-02-13T09:32:15;37.00;;;13.27;;
54261;SDS011;40174;52.364;6.452;2023-02-13T09:34:42;35.17;;;12.40;;
54261;SDS011;40174;52.364;6.452;2023-02-13T09:37:08;34.83;;;13.10;;
54261;SDS011;40174;52.364;6.452;2023-02-13T09:39:35;34.38;;;12.43;;
54261;SDS011;40174;52.364;6.452;2023-02-13T09:42:01;36.15;;;13.90;;
54261;SDS011;40174;52.364;6.452;2023-02-13T09:44:37;43.90;;;14.32;;
54261;SDS011;40174;52.364;6.452;2023-02-13T09:47:10;37.80;;;14.15;;
54261;SDS011;40174;52.364;6.452;2023-02-13T09:49:43;32.63;;;12.57;;
54261;SDS011;40174;52.364;6.452;2023-02-13T09:52:14;40.83;;;13.73;;
54261;SDS011;40174;52.364;6.452;2023-02-13T09:54:41;31.13;;;12.50;;
54261;SDS011;40174;52.364;6.452;2023-02-13T09:57:11;36.05;;;12.98;;
54261;SDS011;40174;52.364;6.452;2023-02-13T09:59:44;37.45;;;14.13;;
54261;SDS011;40174;52.364;6.452;2023-02-13T10:02:30;39.10;;;14.90;;
54261;SDS011;40174;52.364;6.452;2023-02-13T10:05:09;38.92;;;14.32;;
54261;SDS011;40174;52.364;6.452;2023-02-13T10:07:48;35.90;;;13.52;;
54261;SDS011;40174;52.364;6.452;2023-02-13T10:10:25;40.03;;;13.50;;
54261;SDS011;40174;52.364;6.452;2023-02-13T10:13:05;33.72;;;14.02;;
54261;SDS011;40174;52.364;6.452;2023-02-13T10:15:48;37.35;;;13.82;;
54261;SDS011;40174;52.364;6.452;2023-02-13T10:18:22;34.00;;;14.15;;
54261;SDS011;40174;52.364;6.452;2023-02-13T10:20:56;38.38;;;13.82;;
54261;SDS011;40174;52.364;6.452;2023-02-13T10:23:27;40.72;;;13.73;;
54261;SDS011;40174;52.364;6.452;2023-02-13T10:25:59;31.35;;;12.35;;
54261;SDS011;40174;52.364;6.452;2023-02-13T10:28:29;30.38;;;12.88;;
54261;SDS011;40174;52.364;6.452;2023-02-13T10:31:02;31.48;;;12.98;;
54261;SDS011;40174;52.364;6.452;2023-02-13T10:33:35;38.55;;;13.65;;
54261;SDS011;40174;52.364;6.452;2023-02-13T10:36:11;32.45;;;12.80;;
54261;SDS011;40174;52.364;6.452;2023-02-13T10:38:44;31.88;;;12.55;;
54261;SDS011;40174;52.364;6.452;2023-02-13T10:41:24;31.98;;;12.77;;
54261;SDS011;40174;52.364;6.452;2023-02-13T10:44:16;29.92;;;12.82;;
54261;SDS011;40174;52.364;6.452;2023-02-13T10:47:02;26.88;;;11.60;;
54261;SDS011;40174;52.364;6.452;2023-02-13T10:49:47;30.33;;;13.35;;
54261;SDS011;40174;52.364;6.452;2023-02-13T10:52:25;36.47;;;13.20;;
54261;SDS011;40174;52.364;6.452;2023-02-13T10:55:08;31.17;;;13.20;;
54261;SDS011;40174;52.364;6.452;2023-02-13T10:57:51;32.88;;;13.18;;
54261;SDS011;40174;52.364;6.452;2023-02-13T11:00:30;31.55;;;12.75;;
54261;SDS011;40174;52.364;6.452;2023-02-13T11:03:03;31.55;;;12.43;;
54261;SDS011;40174;52.364;6.452;2023-02-13T11:05:32;29.30;;;12.23;;
54261;SDS011;40174;52.364;6.452;2023-02-13T11:08:02;29.38;;;12.80;;
54261;SDS011;40174;52.364;6.452;2023-02-13T11:10:29;28.15;;;12.25;;
54261;SDS011;40174;52.364;6.452;2023-02-13T11:12:56;33.33;;;12.85;;
54261;SDS011;40174;52.364;6.452;2023-02-13T11:15:39;33.63;;;13.30;;
54261;SDS011;40174;52.364;6.452;2023-02-13T11:18:10;32.20;;;12.60;;
54261;SDS011;40174;52.364;6.452;2023-02-13T11:20:43;30.15;;;12.38;;
54261;SDS011;40174;52.364;6.452;2023-02-13T11:23:26;32.83;;;12.80;;
54261;SDS011;40174;52.364;6.452;2023-02-13T11:25:59;32.42;;;13.70;;
54261;SDS011;40174;52.364;6.452;2023-02-13T11:28:28;29.88;;;11.93;;
54261;SDS011;40174;52.364;6.452;2023-02-13T11:31:07;26.92;;;11.80;;
54261;SDS011;40174;52.364;6.452;2023-02-13T11:33:36;32.35;;;12.70;;
54261;SDS011;40174;52.364;6.452;2023-02-13T11:36:06;31.42;;;13.77;;
54261;SDS011;40174;52.364;6.452;2023-02-13T11:38:34;33.65;;;14.48;;
54261;SDS011;40174;52.364;6.452;2023-02-13T11:41:05;29.80;;;12.82;;
54261;SDS011;40174;52.364;6.452;2023-02-13T11:43:34;36.25;;;14.82;;
54261;SDS011;40174;52.364;6.452;2023-02-13T11:46:11;34.75;;;13.35;;
54261;SDS011;40174;52.364;6.452;2023-02-13T11:48:43;32.60;;;12.77;;
54261;SDS011;40174;52.364;6.452;2023-02-13T11:51:30;35.10;;;13.65;;
54261;SDS011;40174;52.364;6.452;2023-02-13T11:54:01;42.05;;;15.95;;
54261;SDS011;40174;52.364;6.452;2023-02-13T11:56:35;40.33;;;15.30;;
54261;SDS011;40174;52.364;6.452;2023-02-13T11:59:13;31.98;;;13.43;;
54261;SDS011;40174;52.364;6.452;2023-02-13T12:01:39;39.08;;;15.23;;
54261;SDS011;40174;52.364;6.452;2023-02-13T12:04:13;37.30;;;14.18;;
54261;SDS011;40174;52.364;6.452;2023-02-13T12:06:56;35.83;;;14.03;;
54261;SDS011;40174;52.364;6.452;2023-02-13T12:09:25;35.63;;;14.35;;
54261;SDS011;40174;52.364;6.452;2023-02-13T12:11:54;36.05;;;14.48;;
54261;SDS011;40174;52.364;6.452;2023-02-13T12:14:24;35.60;;;14.30;;
54261;SDS011;40174;52.364;6.452;2023-02-13T12:16:54;36.55;;;15.50;;
54261;SDS011;40174;52.364;6.452;2023-02-13T12:19:27;36.95;;;15.60;;
54261;SDS011;40174;52.364;6.452;2023-02-13T12:22:02;35.33;;;14.93;;
54261;SDS011;40174;52.364;6.452;2023-02-13T12:24:54;35.22;;;15.20;;
54261;SDS011;40174;52.364;6.452;2023-02-13T12:27:46;38.58;;;15.07;;
54261;SDS011;40174;52.364;6.452;2023-02-13T12:30:32;35.65;;;14.75;;
54261;SDS011;40174;52.364;6.452;2023-02-13T12:33:13;33.67;;;14.18;;
54261;SDS011;40174;52.364;6.452;2023-02-13T12:35:55;35.10;;;14.32;;
54261;SDS011;40174;52.364;6.452;2023-02-13T12:38:36;36.92;;;14.80;;
54261;SDS011;40174;52.364;6.452;2023-02-13T12:41:16;35.42;;;14.98;;
54261;SDS011;40174;52.364;6.452;2023-02-13T12:44:04;36.53;;;16.08;;
54261;SDS011;40174;52.364;6.452;2023-02-13T12:46:55;38.25;;;14.43;;
54261;SDS011;40174;52.364;6.452;2023-02-13T12:49:53;35.88;;;14.65;;
54261;SDS011;40174;52.364;6.452;2023-02-13T12:52:51;37.97;;;15.20;;
54261;SDS011;40174;52.364;6.452;2023-02-13T12:55:39;36.05;;;14.73;;
54261;SDS011;40174;52.364;6.452;2023-02-13T12:58:28;36.97;;;14.90;;
54261;SDS011;40174;52.364;6.452;2023-02-13T13:01:17;32.40;;;13.82;;
54261;SDS011;40174;52.364;6.452;2023-02-13T13:03:51;37.47;;;15.35;;
54261;SDS011;40174;52.364;6.452;2023-02-13T13:06:48;35.13;;;13.80;;
54261;SDS011;40174;52.364;6.452;2023-02-13T13:12:29;29.98;;;13.30;;
54261;SDS011;40174;52.364;6.452;2023-02-13T13:15:05;32.28;;;13.55;;
54261;SDS011;40174;52.364;6.452;2023-02-13T13:17:40;33.95;;;13.80;;
54261;SDS011;40174;52.364;6.452;2023-02-13T13:20:30;31.60;;;13.32;;
54261;SDS011;40174;52.364;6.452;2023-02-13T13:23:10;35.40;;;14.43;;
54261;SDS011;40174;52.364;6.452;2023-02-13T13:25:44;32.10;;;13.38;;
54261;SDS011;40174;52.364;6.452;2023-02-13T13:28:18;28.70;;;11.95;;
54261;SDS011;40174;52.364;6.452;2023-02-13T13:30:47;31.13;;;12.40;;
54261;SDS011;40174;52.364;6.452;2023-02-13T13:33:15;32.70;;;12.52;;
54261;SDS011;40174;52.364;6.452;2023-02-13T13:35:44;27.00;;;12.00;;
54261;SDS011;40174;52.364;6.452;2023-02-13T13:38:20;30.02;;;13.55;;
54261;SDS011;40174;52.364;6.452;2023-02-13T13:40:51;29.60;;;12.43;;
54261;SDS011;40174;52.364;6.452;2023-02-13T13:43:27;30.25;;;12.52;;
54261;SDS011;40174;52.364;6.452;2023-02-13T13:46:02;29.42;;;12.43;;
54261;SDS011;40174;52.364;6.452;2023-02-13T13:48:49;26.63;;;11.75;;
54261;SDS011;40174;52.364;6.452;2023-02-13T13:51:31;25.35;;;11.57;;
54261;SDS011;40174;52.364;6.452;2023-02-13T13:54:16;27.17;;;11.30;;
54261;SDS011;40174;52.364;6.452;2023-02-13T13:57:04;24.88;;;10.98;;
54261;SDS011;40174;52.364;6.452;2023-02-13T14:02:30;28.58;;;11.98;;
54261;SDS011;40174;52.364;6.452;2023-02-13T14:05:17;27.83;;;11.48;;
54261;SDS011;40174;52.364;6.452;2023-02-13T14:07:48;28.23;;;11.85;;
54261;SDS011;40174;52.364;6.452;2023-02-13T14:13:34;26.45;;;11.82;;
54261;SDS011;40174;52.364;6.452;2023-02-13T14:16:04;31.67;;;13.85;;
54261;SDS011;40174;52.364;6.452;2023-02-13T14:18:34;33.28;;;13.73;;
54261;SDS011;40174;52.364;6.452;2023-02-13T14:21:03;31.85;;;13.25;;
54261;SDS011;40174;52.364;6.452;2023-02-13T14:23:37;32.97;;;14.40;;
54261;SDS011;40174;52.364;6.452;2023-02-13T14:26:24;34.38;;;15.27;;
54261;SDS011;40174;52.364;6.452;2023-02-13T14:28:57;35.65;;;15.48;;
54261;SDS011;40174;52.364;6.452;2023-02-13T14:31:39;33.88;;;14.30;;
54261;SDS011;40174;52.364;6.452;2023-02-13T14:34:08;32.13;;;14.02;;
54261;SDS011;40174;52.364;6.452;2023-02-13T14:36:47;35.15;;;14.32;;
54261;SDS011;40174;52.364;6.452;2023-02-13T14:39:30;39.50;;;15.52;;
54261;SDS011;40174;52.364;6.452;2023-02-13T14:41:59;35.33;;;15.23;;
54261;SDS011;40174;52.364;6.452;2023-02-13T14:44:30;33.00;;;15.02;;
54261;SDS011;40174;52.364;6.452;2023-02-13T14:47:01;34.40;;;14.48;;
54261;SDS011;40174;52.364;6.452;2023-02-13T14:49:31;32.83;;;14.63;;
54261;SDS011;40174;52.364;6.452;2023-02-13T14:52:02;36.67;;;15.90;;
54261;SDS011;40174;52.364;6.452;2023-02-13T14:54:31;35.67;;;15.48;;
54261;SDS011;40174;52.364;6.452;2023-02-13T14:57:04;32.78;;;16.05;;
54261;SDS011;40174;52.364;6.452;2023-02-13T14:59:34;33.67;;;15.48;;
54261;SDS011;40174;52.364;6.452;2023-02-13T15:02:06;33.78;;;13.77;;
54261;SDS011;40174;52.364;6.452;2023-02-13T15:04:41;35.03;;;14.50;;
54261;SDS011;40174;52.364;6.452;2023-02-13T15:07:12;39.45;;;16.10;;
54261;SDS011;40174;52.364;6.452;2023-02-13T15:09:44;32.85;;;14.38;;
54261;SDS011;40174;52.364;6.452;2023-02-13T15:12:23;32.65;;;14.25;;